LY89 weather

Bor Airport
Bor, Bor, Serbia

Public forecast

Using degrees Celsius for public forecast. Weather courtesy of forecast.io.

METAR (pilot weather report)

Closest report is Nis Airport, 42.7 nm (79.1 km) SSW. Retrieved 2019/08/17 16:30 UTC (28 minutes ago):

LYNI 171630Z 30007KT 9999 FEW040 26/12 Q1016 NOSIG

TAF (pilot weather forecast)

Closest forecast is Nis Airport, 42.7 nm (79.1 km) SSW. Retrieved 2019/08/17 12:21 UTC (5 hours ago):

TAF LYNI 171100Z 1712/1812 32005KT CAVOK TX29/1713Z TN11/1803Z TEMPO 1712/1716 32015KT